sensor_id;sensor_type;location;lat;lon;timestamp;temperature;humidity
8664;DHT22;4369;47.842;13.096;2022-12-13T00:00:05;-7.60;99.90
8664;DHT22;4369;47.842;13.096;2022-12-13T00:02:33;-7.60;99.90
8664;DHT22;4369;47.842;13.096;2022-12-13T00:04:59;-7.50;99.90
8664;DHT22;4369;47.842;13.096;2022-12-13T00:07:26;-7.40;99.90
8664;DHT22;4369;47.842;13.096;2022-12-13T00:09:53;-7.40;99.90
8664;DHT22;4369;47.842;13.096;2022-12-13T00:12:20;-7.40;99.90
8664;DHT22;4369;47.842;13.096;2022-12-13T00:14:48;-7.50;99.90
8664;DHT22;4369;47.842;13.096;2022-12-13T00:17:15;-7.50;99.90
8664;DHT22;4369;47.842;13.096;2022-12-13T00:19:42;-7.40;99.90
8664;DHT22;4369;47.842;13.096;2022-12-13T00:22:09;-7.50;99.90
8664;DHT22;4369;47.842;13.096;2022-12-13T00:24:35;-7.50;99.90
8664;DHT22;4369;47.842;13.096;2022-12-13T00:27:02;-7.40;99.90
8664;DHT22;4369;47.842;13.096;2022-12-13T00:29:29;-7.40;99.90
8664;DHT22;4369;47.842;13.096;2022-12-13T00:31:57;-7.40;99.90
8664;DHT22;4369;47.842;13.096;2022-12-13T00:34:25;-7.40;99.90
8664;DHT22;4369;47.842;13.096;2022-12-13T00:36:52;-7.40;99.90
8664;DHT22;4369;47.842;13.096;2022-12-13T00:39:19;-7.50;99.90
8664;DHT22;4369;47.842;13.096;2022-12-13T00:41:46;-7.60;99.90
8664;DHT22;4369;47.842;13.096;2022-12-13T00:44:13;-7.60;99.90
8664;DHT22;4369;47.842;13.096;2022-12-13T00:46:41;-7.60;99.90
8664;DHT22;4369;47.842;13.096;2022-12-13T00:49:11;-7.60;99.90
8664;DHT22;4369;47.842;13.096;2022-12-13T00:51:39;-7.60;99.90
8664;DHT22;4369;47.842;13.096;2022-12-13T00:54:06;-7.60;99.90
8664;DHT22;4369;47.842;13.096;2022-12-13T00:56:33;-7.70;99.90
8664;DHT22;4369;47.842;13.096;2022-12-13T00:59:00;-7.80;99.90
8664;DHT22;4369;47.842;13.096;2022-12-13T01:01:28;-7.70;99.90
8664;DHT22;4369;47.842;13.096;2022-12-13T01:03:57;-7.70;99.90
8664;DHT22;4369;47.842;13.096;2022-12-13T01:06:28;-7.60;99.90
8664;DHT22;4369;47.842;13.096;2022-12-13T01:08:55;-7.70;99.90
8664;DHT22;4369;47.842;13.096;2022-12-13T01:11:22;-7.80;99.90
8664;DHT22;4369;47.842;13.096;2022-12-13T01:13:49;-7.90;99.90
8664;DHT22;4369;47.842;13.096;2022-12-13T01:16:16;-7.90;99.90
8664;DHT22;4369;47.842;13.096;2022-12-13T01:18:43;-8.00;99.90
8664;DHT22;4369;47.842;13.096;2022-12-13T01:21:12;-8.00;99.90
8664;DHT22;4369;47.842;13.096;2022-12-13T01:23:41;-7.90;99.90
8664;DHT22;4369;47.842;13.096;2022-12-13T01:26:10;-7.90;99.90
8664;DHT22;4369;47.842;13.096;2022-12-13T01:28:38;-8.10;99.90
8664;DHT22;4369;47.842;13.096;2022-12-13T01:31:07;-8.10;99.90
8664;DHT22;4369;47.842;13.096;2022-12-13T01:33:35;-8.00;99.90
8664;DHT22;4369;47.842;13.096;2022-12-13T01:36:04;-8.10;99.90
8664;DHT22;4369;47.842;13.096;2022-12-13T01:38:31;-8.10;99.90
8664;DHT22;4369;47.842;13.096;2022-12-13T01:41:00;-8.20;99.90
8664;DHT22;4369;47.842;13.096;2022-12-13T01:43:29;-8.10;99.90
8664;DHT22;4369;47.842;13.096;2022-12-13T01:46:16;-8.10;99.90
8664;DHT22;4369;47.842;13.096;2022-12-13T01:48:47;-8.10;99.90
8664;DHT22;4369;47.842;13.096;2022-12-13T01:51:19;-8.10;99.90
8664;DHT22;4369;47.842;13.096;2022-12-13T01:53:47;-8.10;99.90
8664;DHT22;4369;47.842;13.096;2022-12-13T01:56:19;-8.20;99.90
8664;DHT22;4369;47.842;13.096;2022-12-13T01:58:47;-8.10;99.90
8664;DHT22;4369;47.842;13.096;2022-12-13T02:01:15;-8.10;99.90
8664;DHT22;4369;47.842;13.096;2022-12-13T02:03:42;-8.10;99.90
8664;DHT22;4369;47.842;13.096;2022-12-13T02:06:11;-8.10;99.90
8664;DHT22;4369;47.842;13.096;2022-12-13T02:08:40;-8.10;99.90
8664;DHT22;4369;47.842;13.096;2022-12-13T02:11:08;-8.00;99.90
8664;DHT22;4369;47.842;13.096;2022-12-13T02:13:37;-8.10;99.90
8664;DHT22;4369;47.842;13.096;2022-12-13T02:16:10;-8.20;99.90
8664;DHT22;4369;47.842;13.096;2022-12-13T02:18:49;-8.10;99.90
8664;DHT22;4369;47.842;13.096;2022-12-13T02:21:22;-8.10;99.90
8664;DHT22;4369;47.842;13.096;2022-12-13T02:27:00;-8.20;99.90
8664;DHT22;4369;47.842;13.096;2022-12-13T02:33:09;-8.30;99.90
8664;DHT22;4369;47.842;13.096;2022-12-13T02:35:42;-8.20;99.90
8664;DHT22;4369;47.842;13.096;2022-12-13T02:38:13;-8.40;99.90
8664;DHT22;4369;47.842;13.096;2022-12-13T02:40:45;-8.40;99.90
8664;DHT22;4369;47.842;13.096;2022-12-13T02:43:18;-8.50;99.90
8664;DHT22;4369;47.842;13.096;2022-12-13T02:45:48;-8.60;99.90
8664;DHT22;4369;47.842;13.096;2022-12-13T02:48:21;-8.50;99.90
8664;DHT22;4369;47.842;13.096;2022-12-13T02:50:50;-8.60;99.90
8664;DHT22;4369;47.842;13.096;2022-12-13T02:53:19;-8.50;99.90
8664;DHT22;4369;47.842;13.096;2022-12-13T02:55:47;-8.60;99.90
8664;DHT22;4369;47.842;13.096;2022-12-13T02:58:16;-8.50;99.90
8664;DHT22;4369;47.842;13.096;2022-12-13T03:00:52;-8.70;99.90
8664;DHT22;4369;47.842;13.096;2022-12-13T03:03:32;-8.70;99.90
8664;DHT22;4369;47.842;13.096;2022-12-13T03:06:12;-8.60;99.90
8664;DHT22;4369;47.842;13.096;2022-12-13T03:09:02;-8.60;99.90
8664;DHT22;4369;47.842;13.096;2022-12-13T03:11:48;-8.50;99.90
8664;DHT22;4369;47.842;13.096;2022-12-13T03:14:40;-8.60;99.90
8664;DHT22;4369;47.842;13.096;2022-12-13T03:17:13;-8.60;99.90
8664;DHT22;4369;47.842;13.096;2022-12-13T03:19:43;-8.70;99.90
8664;DHT22;4369;47.842;13.096;2022-12-13T03:22:10;-8.80;99.90
8664;DHT22;4369;47.842;13.096;2022-12-13T03:24:37;-8.60;99.90
8664;DHT22;4369;47.842;13.096;2022-12-13T03:27:03;-8.60;99.90
8664;DHT22;4369;47.842;13.096;2022-12-13T03:29:30;-8.60;99.90
8664;DHT22;4369;47.842;13.096;2022-12-13T03:31:57;-8.70;99.90
8664;DHT22;4369;47.842;13.096;2022-12-13T03:34:24;-8.60;99.90
8664;DHT22;4369;47.842;13.096;2022-12-13T03:36:52;-8.60;99.90
8664;DHT22;4369;47.842;13.096;2022-12-13T03:39:19;-8.60;99.90
8664;DHT22;4369;47.842;13.096;2022-12-13T03:41:46;-8.60;99.90
8664;DHT22;4369;47.842;13.096;2022-12-13T03:44:14;-8.60;99.90
8664;DHT22;4369;47.842;13.096;2022-12-13T03:46:41;-8.60;99.90
8664;DHT22;4369;47.842;13.096;2022-12-13T03:49:07;-8.60;99.90
8664;DHT22;4369;47.842;13.096;2022-12-13T03:51:34;-8.60;99.90
8664;DHT22;4369;47.842;13.096;2022-12-13T03:54:02;-8.70;99.90
8664;DHT22;4369;47.842;13.096;2022-12-13T03:56:29;-8.60;99.90
8664;DHT22;4369;47.842;13.096;2022-12-13T03:58:56;-8.60;99.90
8664;DHT22;4369;47.842;13.096;2022-12-13T04:01:23;-8.60;99.90
8664;DHT22;4369;47.842;13.096;2022-12-13T04:03:50;-8.60;99.90
8664;DHT22;4369;47.842;13.096;2022-12-13T04:06:16;-8.60;99.90
8664;DHT22;4369;47.842;13.096;2022-12-13T04:08:43;-8.60;99.90
8664;DHT22;4369;47.842;13.096;2022-12-13T04:11:11;-8.60;99.90
8664;DHT22;4369;47.842;13.096;2022-12-13T04:13:56;-8.60;99.90
8664;DHT22;4369;47.842;13.096;2022-12-13T04:16:23;-8.60;99.90
8664;DHT22;4369;47.842;13.096;2022-12-13T04:18:50;-8.60;99.90
8664;DHT22;4369;47.842;13.096;2022-12-13T04:21:17;-8.60;99.90
8664;DHT22;4369;47.842;13.096;2022-12-13T04:23:43;-8.70;99.90
8664;DHT22;4369;47.842;13.096;2022-12-13T04:26:12;-8.70;99.90
8664;DHT22;4369;47.842;13.096;2022-12-13T04:28:39;-8.70;99.90
8664;DHT22;4369;47.842;13.096;2022-12-13T04:31:05;-8.70;99.90
8664;DHT22;4369;47.842;13.096;2022-12-13T04:33:32;-8.70;99.90
8664;DHT22;4369;47.842;13.096;2022-12-13T04:35:59;-8.80;99.90
8664;DHT22;4369;47.842;13.096;2022-12-13T04:38:26;-8.80;99.90
8664;DHT22;4369;47.842;13.096;2022-12-13T04:40:53;-8.70;99.90
8664;DHT22;4369;47.842;13.096;2022-12-13T04:43:30;-8.80;99.90
8664;DHT22;4369;47.842;13.096;2022-12-13T04:45:57;-8.80;99.90
8664;DHT22;4369;47.842;13.096;2022-12-13T04:48:24;-8.80;99.90
8664;DHT22;4369;47.842;13.096;2022-12-13T04:50:51;-8.90;99.90
8664;DHT22;4369;47.842;13.096;2022-12-13T04:53:17;-8.80;99.90
8664;DHT22;4369;47.842;13.096;2022-12-13T04:55:44;-8.80;99.90
8664;DHT22;4369;47.842;13.096;2022-12-13T04:58:11;-8.80;99.90
8664;DHT22;4369;47.842;13.096;2022-12-13T05:00:40;-8.90;99.90
8664;DHT22;4369;47.842;13.096;2022-12-13T05:03:07;-8.90;99.90
8664;DHT22;4369;47.842;13.096;2022-12-13T05:05:36;-8.90;99.90
8664;DHT22;4369;47.842;13.096;2022-12-13T05:08:04;-8.80;99.90
8664;DHT22;4369;47.842;13.096;2022-12-13T05:10:31;-8.80;99.90
8664;DHT22;4369;47.842;13.096;2022-12-13T05:12:58;-8.80;99.90
8664;DHT22;4369;47.842;13.096;2022-12-13T05:15:24;-8.80;99.90
8664;DHT22;4369;47.842;13.096;2022-12-13T05:17:53;-8.70;99.90
8664;DHT22;4369;47.842;13.096;2022-12-13T05:20:20;-8.80;99.90
8664;DHT22;4369;47.842;13.096;2022-12-13T05:22:46;-8.80;99.90
8664;DHT22;4369;47.842;13.096;2022-12-13T05:25:13;-8.80;99.90
8664;DHT22;4369;47.842;13.096;2022-12-13T05:27:40;-8.70;99.90
8664;DHT22;4369;47.842;13.096;2022-12-13T05:30:08;-8.70;99.90
8664;DHT22;4369;47.842;13.096;2022-12-13T05:32:35;-8.70;99.90
8664;DHT22;4369;47.842;13.096;2022-12-13T05:35:05;-8.70;99.90
8664;DHT22;4369;47.842;13.096;2022-12-13T05:37:32;-8.70;99.90
8664;DHT22;4369;47.842;13.096;2022-12-13T05:39:59;-8.70;99.90
8664;DHT22;4369;47.842;13.096;2022-12-13T05:42:29;-8.60;99.90
8664;DHT22;4369;47.842;13.096;2022-12-13T05:44:56;-8.50;99.90
8664;DHT22;4369;47.842;13.096;2022-12-13T05:47:23;-8.60;99.90
8664;DHT22;4369;47.842;13.096;2022-12-13T05:49:50;-8.80;99.90
8664;DHT22;4369;47.842;13.096;2022-12-13T05:52:20;-8.90;99.90
8664;DHT22;4369;47.842;13.096;2022-12-13T05:54:53;-8.90;99.90
8664;DHT22;4369;47.842;13.096;2022-12-13T05:57:20;-8.80;99.90
8664;DHT22;4369;47.842;13.096;2022-12-13T05:59:47;-8.80;99.90
8664;DHT22;4369;47.842;13.096;2022-12-13T06:02:14;-8.70;99.90
8664;DHT22;4369;47.842;13.096;2022-12-13T06:04:42;-8.70;99.90
8664;DHT22;4369;47.842;13.096;2022-12-13T06:07:09;-8.60;99.90
8664;DHT22;4369;47.842;13.096;2022-12-13T06:09:38;-8.60;99.90
8664;DHT22;4369;47.842;13.096;2022-12-13T06:12:04;-8.70;99.90
8664;DHT22;4369;47.842;13.096;2022-12-13T06:14:31;-8.70;99.90
8664;DHT22;4369;47.842;13.096;2022-12-13T06:16:58;-8.70;99.90
8664;DHT22;4369;47.842;13.096;2022-12-13T06:19:25;-8.80;99.90
8664;DHT22;4369;47.842;13.096;2022-12-13T06:21:53;-8.80;99.90
8664;DHT22;4369;47.842;13.096;2022-12-13T06:24:22;-8.90;99.90
8664;DHT22;4369;47.842;13.096;2022-12-13T06:26:50;-9.00;99.90
8664;DHT22;4369;47.842;13.096;2022-12-13T06:29:19;-9.00;99.90
8664;DHT22;4369;47.842;13.096;2022-12-13T06:31:49;-9.10;99.90
8664;DHT22;4369;47.842;13.096;2022-12-13T06:34:17;-8.90;99.90
8664;DHT22;4369;47.842;13.096;2022-12-13T06:36:44;-9.00;99.90
8664;DHT22;4369;47.842;13.096;2022-12-13T06:39:11;-9.00;99.90
8664;DHT22;4369;47.842;13.096;2022-12-13T06:41:38;-9.00;99.90
8664;DHT22;4369;47.842;13.096;2022-12-13T06:44:06;-9.00;99.90
8664;DHT22;4369;47.842;13.096;2022-12-13T06:46:33;-9.00;99.90
8664;DHT22;4369;47.842;13.096;2022-12-13T06:49:00;-8.90;99.90
8664;DHT22;4369;47.842;13.096;2022-12-13T06:51:27;-8.80;99.90
8664;DHT22;4369;47.842;13.096;2022-12-13T06:53:53;-8.70;99.90
8664;DHT22;4369;47.842;13.096;2022-12-13T06:56:21;-8.70;99.90
8664;DHT22;4369;47.842;13.096;2022-12-13T06:58:48;-8.60;99.90
8664;DHT22;4369;47.842;13.096;2022-12-13T07:01:17;-8.60;99.90
8664;DHT22;4369;47.842;13.096;2022-12-13T07:03:44;-8.60;99.90
8664;DHT22;4369;47.842;13.096;2022-12-13T07:06:13;-8.60;99.90
8664;DHT22;4369;47.842;13.096;2022-12-13T07:08:41;-8.60;99.90
8664;DHT22;4369;47.842;13.096;2022-12-13T07:11:12;-8.60;99.90
8664;DHT22;4369;47.842;13.096;2022-12-13T07:13:40;-8.50;99.90
8664;DHT22;4369;47.842;13.096;2022-12-13T07:16:07;-8.50;99.90
8664;DHT22;4369;47.842;13.096;2022-12-13T07:18:35;-8.40;99.90
8664;DHT22;4369;47.842;13.096;2022-12-13T07:21:03;-8.40;99.90
8664;DHT22;4369;47.842;13.096;2022-12-13T07:23:30;-8.50;99.90
8664;DHT22;4369;47.842;13.096;2022-12-13T07:25:57;-8.40;99.90
8664;DHT22;4369;47.842;13.096;2022-12-13T07:28:24;-8.40;99.90
8664;DHT22;4369;47.842;13.096;2022-12-13T07:30:51;-8.40;99.90
8664;DHT22;4369;47.842;13.096;2022-12-13T07:33:17;-8.40;99.90
8664;DHT22;4369;47.842;13.096;2022-12-13T07:35:46;-8.30;99.90
8664;DHT22;4369;47.842;13.096;2022-12-13T07:38:12;-8.20;99.90
8664;DHT22;4369;47.842;13.096;2022-12-13T07:40:39;-8.30;99.90
8664;DHT22;4369;47.842;13.096;2022-12-13T07:43:06;-8.30;99.90
8664;DHT22;4369;47.842;13.096;2022-12-13T07:45:33;-8.20;99.90
8664;DHT22;4369;47.842;13.096;2022-12-13T07:48:03;-8.20;99.90
8664;DHT22;4369;47.842;13.096;2022-12-13T07:50:30;-8.20;99.90
8664;DHT22;4369;47.842;13.096;2022-12-13T07:53:02;-8.20;99.90
8664;DHT22;4369;47.842;13.096;2022-12-13T07:55:30;-8.10;99.90
8664;DHT22;4369;47.842;13.096;2022-12-13T07:58:02;-8.20;99.90
8664;DHT22;4369;47.842;13.096;2022-12-13T08:00:29;-8.20;99.90
8664;DHT22;4369;47.842;13.096;2022-12-13T08:02:56;-8.20;99.90
8664;DHT22;4369;47.842;13.096;2022-12-13T08:05:23;-8.10;99.90
8664;DHT22;4369;47.842;13.096;2022-12-13T08:07:50;-8.10;99.90
8664;DHT22;4369;47.842;13.096;2022-12-13T08:10:18;-8.10;99.90
8664;DHT22;4369;47.842;13.096;2022-12-13T08:12:45;-8.10;99.90
8664;DHT22;4369;47.842;13.096;2022-12-13T08:15:12;-8.10;99.90
8664;DHT22;4369;47.842;13.096;2022-12-13T08:17:39;-8.10;99.90
8664;DHT22;4369;47.842;13.096;2022-12-13T08:20:07;-8.00;99.90
8664;DHT22;4369;47.842;13.096;2022-12-13T08:22:34;-8.10;99.90
8664;DHT22;4369;47.842;13.096;2022-12-13T08:25:01;-8.00;99.90
8664;DHT22;4369;47.842;13.096;2022-12-13T08:27:30;-8.00;99.90
8664;DHT22;4369;47.842;13.096;2022-12-13T08:29:57;-8.00;99.90
8664;DHT22;4369;47.842;13.096;2022-12-13T08:32:23;-8.00;99.90
8664;DHT22;4369;47.842;13.096;2022-12-13T08:34:50;-8.00;99.90
8664;DHT22;4369;47.842;13.096;2022-12-13T08:37:17;-8.00;99.90
8664;DHT22;4369;47.842;13.096;2022-12-13T08:39:44;-8.10;99.90
8664;DHT22;4369;47.842;13.096;2022-12-13T08:42:13;-8.10;99.90
8664;DHT22;4369;47.842;13.096;2022-12-13T08:44:41;-8.20;99.90
8664;DHT22;4369;47.842;13.096;2022-12-13T08:47:08;-8.10;99.90
8664;DHT22;4369;47.842;13.096;2022-12-13T08:49:35;-8.00;99.90
8664;DHT22;4369;47.842;13.096;2022-12-13T08:52:02;-8.00;99.90
8664;DHT22;4369;47.842;13.096;2022-12-13T08:54:31;-8.10;99.90
8664;DHT22;4369;47.842;13.096;2022-12-13T08:56:58;-8.10;99.90
8664;DHT22;4369;47.842;13.096;2022-12-13T08:59:25;-8.20;99.90
8664;DHT22;4369;47.842;13.096;2022-12-13T09:01:53;-8.10;99.90
8664;DHT22;4369;47.842;13.096;2022-12-13T09:04:20;-8.00;99.90
8664;DHT22;4369;47.842;13.096;2022-12-13T09:06:47;-7.80;99.90
8664;DHT22;4369;47.842;13.096;2022-12-13T09:09:14;-7.70;99.90
8664;DHT22;4369;47.842;13.096;2022-12-13T09:11:41;-7.60;99.90
8664;DHT22;4369;47.842;13.096;2022-12-13T09:14:08;-7.50;99.90
8664;DHT22;4369;47.842;13.096;2022-12-13T09:16:35;-7.30;99.90
8664;DHT22;4369;47.842;13.096;2022-12-13T09:19:04;-6.90;99.90
8664;DHT22;4369;47.842;13.096;2022-12-13T09:21:31;-6.60;99.90
8664;DHT22;4369;47.842;13.096;2022-12-13T09:23:58;-6.30;99.90
8664;DHT22;4369;47.842;13.096;2022-12-13T09:26:25;-6.10;99.90
8664;DHT22;4369;47.842;13.096;2022-12-13T09:28:52;-6.00;99.90
8664;DHT22;4369;47.842;13.096;2022-12-13T09:31:19;-5.70;99.90
8664;DHT22;4369;47.842;13.096;2022-12-13T09:33:46;-5.50;99.90
8664;DHT22;4369;47.842;13.096;2022-12-13T09:36:16;-5.00;99.90
8664;DHT22;4369;47.842;13.096;2022-12-13T09:38:44;-4.60;99.90
8664;DHT22;4369;47.842;13.096;2022-12-13T09:41:24;-4.10;99.90
8664;DHT22;4369;47.842;13.096;2022-12-13T09:43:55;-3.80;99.90
8664;DHT22;4369;47.842;13.096;2022-12-13T09:46:27;-3.70;99.90
8664;DHT22;4369;47.842;13.096;2022-12-13T09:48:55;-3.40;99.90
8664;DHT22;4369;47.842;13.096;2022-12-13T09:51:25;-3.00;99.90
8664;DHT22;4369;47.842;13.096;2022-12-13T09:53:53;-2.40;99.90
8664;DHT22;4369;47.842;13.096;2022-12-13T09:56:21;-1.70;99.90
8664;DHT22;4369;47.842;13.096;2022-12-13T09:58:50;-0.80;99.90
8664;DHT22;4369;47.842;13.096;2022-12-13T10:01:18;-0.10;96.80
8664;DHT22;4369;47.842;13.096;2022-12-13T10:03:47;0.70;93.40
8664;DHT22;4369;47.842;13.096;2022-12-13T10:06:16;1.50;87.10
8664;DHT22;4369;47.842;13.096;2022-12-13T10:08:47;2.30;79.50
8664;DHT22;4369;47.842;13.096;2022-12-13T10:11:16;3.70;73.30
8664;DHT22;4369;47.842;13.096;2022-12-13T10:13:47;4.20;68.10
8664;DHT22;4369;47.842;13.096;2022-12-13T10:16:18;5.10;64.50
8664;DHT22;4369;47.842;13.096;2022-12-13T10:18:50;6.20;59.70
8664;DHT22;4369;47.842;13.096;2022-12-13T10:21:21;7.10;55.60
8664;DHT22;4369;47.842;13.096;2022-12-13T10:23:52;7.50;52.10
8664;DHT22;4369;47.842;13.096;2022-12-13T10:26:19;8.10;49.70
8664;DHT22;4369;47.842;13.096;2022-12-13T10:28:46;8.90;47.80
8664;DHT22;4369;47.842;13.096;2022-12-13T10:31:17;10.10;45.10
8664;DHT22;4369;47.842;13.096;2022-12-13T10:33:52;10.60;41.10
8664;DHT22;4369;47.842;13.096;2022-12-13T10:36:31;11.80;39.70
8664;DHT22;4369;47.842;13.096;2022-12-13T10:39:00;13.30;37.90
8664;DHT22;4369;47.842;13.096;2022-12-13T10:41:33;14.60;35.80
8664;DHT22;4369;47.842;13.096;2022-12-13T10:47:11;15.50;33.10
8664;DHT22;4369;47.842;13.096;2022-12-13T10:49:47;14.00;31.60
8664;DHT22;4369;47.842;13.096;2022-12-13T10:52:24;13.70;33.40
8664;DHT22;4369;47.842;13.096;2022-12-13T10:54:53;14.90;32.60
8664;DHT22;4369;47.842;13.096;2022-12-13T10:57:21;16.00;31.20
8664;DHT22;4369;47.842;13.096;2022-12-13T10:59:49;16.70;30.30
8664;DHT22;4369;47.842;13.096;2022-12-13T11:02:34;17.10;29.80
8664;DHT22;4369;47.842;13.096;2022-12-13T11:05:22;17.90;29.60
8664;DHT22;4369;47.842;13.096;2022-12-13T11:07:50;17.70;28.80
8664;DHT22;4369;47.842;13.096;2022-12-13T11:10:22;17.00;28.80
8664;DHT22;4369;47.842;13.096;2022-12-13T11:12:50;15.90;28.80
8664;DHT22;4369;47.842;13.096;2022-12-13T11:15:19;15.90;29.40
8664;DHT22;4369;47.842;13.096;2022-12-13T11:17:48;15.40;29.40
8664;DHT22;4369;47.842;13.096;2022-12-13T11:20:21;14.80;30.20
8664;DHT22;4369;47.842;13.096;2022-12-13T11:22:58;14.00;30.20
8664;DHT22;4369;47.842;13.096;2022-12-13T11:25:31;13.40;31.60
8664;DHT22;4369;47.842;13.096;2022-12-13T11:28:11;12.90;32.00
8664;DHT22;4369;47.842;13.096;2022-12-13T11:30:47;12.30;32.90
8664;DHT22;4369;47.842;13.096;2022-12-13T11:33:25;11.80;34.30
8664;DHT22;4369;47.842;13.096;2022-12-13T11:36:12;11.30;34.90
8664;DHT22;4369;47.842;13.096;2022-12-13T11:38:50;10.60;36.10
8664;DHT22;4369;47.842;13.096;2022-12-13T11:41:27;10.00;36.50
8664;DHT22;4369;47.842;13.096;2022-12-13T11:43:58;9.40;38.40
8664;DHT22;4369;47.842;13.096;2022-12-13T11:46:34;9.00;39.10
8664;DHT22;4369;47.842;13.096;2022-12-13T11:49:08;8.30;40.00
8664;DHT22;4369;47.842;13.096;2022-12-13T11:51:41;7.80;40.60
8664;DHT22;4369;47.842;13.096;2022-12-13T11:54:14;7.40;41.50
8664;DHT22;4369;47.842;13.096;2022-12-13T11:56:44;7.40;41.90
8664;DHT22;4369;47.842;13.096;2022-12-13T11:59:21;7.50;41.90
8664;DHT22;4369;47.842;13.096;2022-12-13T12:01:52;7.20;42.10
8664;DHT22;4369;47.842;13.096;2022-12-13T12:04:31;7.80;42.60
8664;DHT22;4369;47.842;13.096;2022-12-13T12:07:05;7.80;42.40
8664;DHT22;4369;47.842;13.096;2022-12-13T12:09:37;8.30;40.80
8664;DHT22;4369;47.842;13.096;2022-12-13T12:12:11;8.40;40.40
8664;DHT22;4369;47.842;13.096;2022-12-13T12:14:45;9.20;40.20
8664;DHT22;4369;47.842;13.096;2022-12-13T12:17:15;11.10;38.00
8664;DHT22;4369;47.842;13.096;2022-12-13T12:19:49;12.20;36.50
8664;DHT22;4369;47.842;13.096;2022-12-13T12:22:27;13.10;35.20
8664;DHT22;4369;47.842;13.096;2022-12-13T12:25:10;13.50;33.90
8664;DHT22;4369;47.842;13.096;2022-12-13T12:27:45;13.30;33.20
8664;DHT22;4369;47.842;13.096;2022-12-13T12:30:20;13.70;33.60
8664;DHT22;4369;47.842;13.096;2022-12-13T12:32:52;13.50;33.00
8664;DHT22;4369;47.842;13.096;2022-12-13T12:35:43;13.00;33.40
8664;DHT22;4369;47.842;13.096;2022-12-13T12:38:37;12.20;33.00
8664;DHT22;4369;47.842;13.096;2022-12-13T12:41:28;11.70;34.00
8664;DHT22;4369;47.842;13.096;2022-12-13T12:44:04;11.80;36.10
8664;DHT22;4369;47.842;13.096;2022-12-13T12:46:43;11.60;36.00
8664;DHT22;4369;47.842;13.096;2022-12-13T12:49:42;11.70;36.70
8664;DHT22;4369;47.842;13.096;2022-12-13T12:52:20;11.70;37.00
8664;DHT22;4369;47.842;13.096;2022-12-13T12:54:56;12.80;36.60
8664;DHT22;4369;47.842;13.096;2022-12-13T12:57:35;13.30;36.20
8664;DHT22;4369;47.842;13.096;2022-12-13T13:00:11;13.20;35.30
8664;DHT22;4369;47.842;13.096;2022-12-13T13:03:05;13.40;35.50
8664;DHT22;4369;47.842;13.096;2022-12-13T13:05:36;13.20;35.20
8664;DHT22;4369;47.842;13.096;2022-12-13T13:08:10;13.00;35.50
8664;DHT22;4369;47.842;13.096;2022-12-13T13:10:38;12.70;36.00
8664;DHT22;4369;47.842;13.096;2022-12-13T13:13:07;12.70;36.10
8664;DHT22;4369;47.842;13.096;2022-12-13T13:15:55;12.00;37.10
8664;DHT22;4369;47.842;13.096;2022-12-13T13:18:51;11.20;37.10
8664;DHT22;4369;47.842;13.096;2022-12-13T13:21:25;10.20;38.40
8664;DHT22;4369;47.842;13.096;2022-12-13T13:24:05;9.90;40.70
8664;DHT22;4369;47.842;13.096;2022-12-13T13:26:35;9.80;40.70
8664;DHT22;4369;47.842;13.096;2022-12-13T13:32:09;10.60;39.70
8664;DHT22;4369;47.842;13.096;2022-12-13T13:34:47;10.40;39.10
8664;DHT22;4369;47.842;13.096;2022-12-13T13:37:27;9.50;40.20
8664;DHT22;4369;47.842;13.096;2022-12-13T13:39:57;8.70;41.10
8664;DHT22;4369;47.842;13.096;2022-12-13T13:42:25;8.40;42.60
8664;DHT22;4369;47.842;13.096;2022-12-13T13:45:18;8.40;42.90
8664;DHT22;4369;47.842;13.096;2022-12-13T13:48:11;8.30;42.90
8664;DHT22;4369;47.842;13.096;2022-12-13T14:00:09;5.90;46.90
8664;DHT22;4369;47.842;13.096;2022-12-13T14:06:52;4.50;50.80
8664;DHT22;4369;47.842;13.096;2022-12-13T14:13:06;2.80;54.70
8664;DHT22;4369;47.842;13.096;2022-12-13T14:16:03;2.30;56.90
8664;DHT22;4369;47.842;13.096;2022-12-13T14:22:05;1.50;60.30
8664;DHT22;4369;47.842;13.096;2022-12-13T14:24:42;0.90;64.00
8664;DHT22;4369;47.842;13.096;2022-12-13T14:27:18;0.80;67.00
8664;DHT22;4369;47.842;13.096;2022-12-13T14:29:47;0.70;67.20
8664;DHT22;4369;47.842;13.096;2022-12-13T14:32:20;0.20;69.20
8664;DHT22;4369;47.842;13.096;2022-12-13T14:34:47;-0.10;74.30
8664;DHT22;4369;47.842;13.096;2022-12-13T14:37:25;0.00;77.80
8664;DHT22;4369;47.842;13.096;2022-12-13T14:39:55;-0.10;79.60
8664;DHT22;4369;47.842;13.096;2022-12-13T14:42:24;0.20;79.10
8664;DHT22;4369;47.842;13.096;2022-12-13T14:44:53;0.10;78.80
8664;DHT22;4369;47.842;13.096;2022-12-13T14:47:21;-0.20;81.10
8664;DHT22;4369;47.842;13.096;2022-12-13T14:49:52;-0.70;82.50
8664;DHT22;4369;47.842;13.096;2022-12-13T14:52:22;-1.00;87.50
8664;DHT22;4369;47.842;13.096;2022-12-13T14:54:52;-1.30;90.50
8664;DHT22;4369;47.842;13.096;2022-12-13T14:57:22;-1.40;91.20
8664;DHT22;4369;47.842;13.096;2022-12-13T14:59:51;-1.50;92.30
8664;DHT22;4369;47.842;13.096;2022-12-13T15:02:23;-1.70;93.90
8664;DHT22;4369;47.842;13.096;2022-12-13T15:04:52;-1.90;95.20
8664;DHT22;4369;47.842;13.096;2022-12-13T15:07:25;-2.00;95.90
8664;DHT22;4369;47.842;13.096;2022-12-13T15:09:55;-1.90;96.30
8664;DHT22;4369;47.842;13.096;2022-12-13T15:12:23;-2.10;95.60
8664;DHT22;4369;47.842;13.096;2022-12-13T15:14:56;-2.20;96.30
8664;DHT22;4369;47.842;13.096;2022-12-13T15:17:30;-2.40;96.10
8664;DHT22;4369;47.842;13.096;2022-12-13T15:19:58;-2.50;96.60
8664;DHT22;4369;47.842;13.096;2022-12-13T15:22:26;-2.60;98.90
8664;DHT22;4369;47.842;13.096;2022-12-13T15:24:54;-2.60;99.60
8664;DHT22;4369;47.842;13.096;2022-12-13T15:27:21;-2.70;99.90
8664;DHT22;4369;47.842;13.096;2022-12-13T15:29:50;-2.80;99.90
8664;DHT22;4369;47.842;13.096;2022-12-13T15:32:19;-2.80;99.90
8664;DHT22;4369;47.842;13.096;2022-12-13T15:34:48;-3.00;99.90
8664;DHT22;4369;47.842;13.096;2022-12-13T15:37:20;-3.20;99.90
8664;DHT22;4369;47.842;13.096;2022-12-13T15:39:51;-3.20;99.90
8664;DHT22;4369;47.842;13.096;2022-12-13T15:42:20;-3.40;99.90
8664;DHT22;4369;47.842;13.096;2022-12-13T15:44:50;-3.40;99.90
8664;DHT22;4369;47.842;13.096;2022-12-13T15:47:20;-3.40;99.90
8664;DHT22;4369;47.842;13.096;2022-12-13T15:49:52;-3.50;99.90
8664;DHT22;4369;47.842;13.096;2022-12-13T15:52:34;-3.70;99.90
8664;DHT22;4369;47.842;13.096;2022-12-13T15:55:23;-3.70;99.90
8664;DHT22;4369;47.842;13.096;2022-12-13T15:57:51;-3.60;99.90
8664;DHT22;4369;47.842;13.096;2022-12-13T16:00:21;-3.50;99.90
8664;DHT22;4369;47.842;13.096;2022-12-13T16:02:52;-3.60;99.90
8664;DHT22;4369;47.842;13.096;2022-12-13T16:05:28;-3.80;99.90
8664;DHT22;4369;47.842;13.096;2022-12-13T16:07:57;-3.90;99.90
8664;DHT22;4369;47.842;13.096;2022-12-13T16:10:27;-4.00;99.90
8664;DHT22;4369;47.842;13.096;2022-12-13T16:12:58;-4.20;99.90
8664;DHT22;4369;47.842;13.096;2022-12-13T16:15:27;-4.50;99.90
8664;DHT22;4369;47.842;13.096;2022-12-13T16:18:03;-4.50;99.90
8664;DHT22;4369;47.842;13.096;2022-12-13T16:20:31;-4.40;99.90
8664;DHT22;4369;47.842;13.096;2022-12-13T16:22:57;-4.40;99.90
8664;DHT22;4369;47.842;13.096;2022-12-13T16:25:26;-4.50;99.90
8664;DHT22;4369;47.842;13.096;2022-12-13T16:27:52;-4.60;99.90
8664;DHT22;4369;47.842;13.096;2022-12-13T16:30:24;-4.80;99.90
8664;DHT22;4369;47.842;13.096;2022-12-13T16:32:51;-4.90;99.90
8664;DHT22;4369;47.842;13.096;2022-12-13T16:35:18;-4.80;99.90
8664;DHT22;4369;47.842;13.096;2022-12-13T16:37:45;-4.70;99.90
8664;DHT22;4369;47.842;13.096;2022-12-13T16:43:16;-4.80;99.90